sensor_id;sensor_type;location;lat;lon;timestamp;temperature;humidity
11666;DHT22;5889;51.350;6.708;2024-01-16T00:01:06;0.90;99.90
11666;DHT22;5889;51.350;6.708;2024-01-16T00:03:33;0.90;99.90
11666;DHT22;5889;51.350;6.708;2024-01-16T00:06:00;0.90;99.90
11666;DHT22;5889;51.350;6.708;2024-01-16T00:08:29;0.90;99.90
11666;DHT22;5889;51.350;6.708;2024-01-16T00:10:56;0.90;99.90
11666;DHT22;5889;51.350;6.708;2024-01-16T00:13:23;1.00;99.90
11666;DHT22;5889;51.350;6.708;2024-01-16T00:15:49;1.00;99.90
11666;DHT22;5889;51.350;6.708;2024-01-16T00:18:16;1.00;99.90
11666;DHT22;5889;51.350;6.708;2024-01-16T00:20:44;1.00;99.90
11666;DHT22;5889;51.350;6.708;2024-01-16T00:23:11;1.00;99.90
11666;DHT22;5889;51.350;6.708;2024-01-16T00:25:39;0.90;99.90
11666;DHT22;5889;51.350;6.708;2024-01-16T00:28:06;1.00;99.90
11666;DHT22;5889;51.350;6.708;2024-01-16T00:30:33;1.00;99.90
11666;DHT22;5889;51.350;6.708;2024-01-16T00:33:00;1.00;99.90
11666;DHT22;5889;51.350;6.708;2024-01-16T00:35:28;0.90;99.90
11666;DHT22;5889;51.350;6.708;2024-01-16T00:37:55;0.90;99.90
11666;DHT22;5889;51.350;6.708;2024-01-16T00:40:22;1.00;99.90
11666;DHT22;5889;51.350;6.708;2024-01-16T00:42:50;1.00;99.90
11666;DHT22;5889;51.350;6.708;2024-01-16T00:45:17;0.90;99.90
11666;DHT22;5889;51.350;6.708;2024-01-16T00:47:44;1.00;99.90
11666;DHT22;5889;51.350;6.708;2024-01-16T00:50:11;1.00;99.90
11666;DHT22;5889;51.350;6.708;2024-01-16T00:52:38;0.90;99.90
11666;DHT22;5889;51.350;6.708;2024-01-16T00:55:05;0.90;99.90
11666;DHT22;5889;51.350;6.708;2024-01-16T00:57:32;0.90;99.90
11666;DHT22;5889;51.350;6.708;2024-01-16T01:00:01;0.90;99.90
11666;DHT22;5889;51.350;6.708;2024-01-16T01:02:29;0.90;99.90
11666;DHT22;5889;51.350;6.708;2024-01-16T01:04:56;0.90;99.90
11666;DHT22;5889;51.350;6.708;2024-01-16T01:07:23;0.90;99.90
11666;DHT22;5889;51.350;6.708;2024-01-16T01:09:51;0.90;99.90
11666;DHT22;5889;51.350;6.708;2024-01-16T01:12:18;0.90;99.90
11666;DHT22;5889;51.350;6.708;2024-01-16T01:14:45;0.90;99.90
11666;DHT22;5889;51.350;6.708;2024-01-16T01:17:13;0.90;99.90
11666;DHT22;5889;51.350;6.708;2024-01-16T01:19:41;1.00;99.90
11666;DHT22;5889;51.350;6.708;2024-01-16T01:22:08;1.00;99.90
11666;DHT22;5889;51.350;6.708;2024-01-16T01:24:35;1.00;99.90
11666;DHT22;5889;51.350;6.708;2024-01-16T01:27:02;1.00;99.90
11666;DHT22;5889;51.350;6.708;2024-01-16T01:29:29;1.00;99.90
11666;DHT22;5889;51.350;6.708;2024-01-16T01:31:56;1.00;99.90
11666;DHT22;5889;51.350;6.708;2024-01-16T01:34:24;1.00;99.90
11666;DHT22;5889;51.350;6.708;2024-01-16T01:36:51;1.00;99.90
11666;DHT22;5889;51.350;6.708;2024-01-16T01:39:18;1.00;99.90
11666;DHT22;5889;51.350;6.708;2024-01-16T01:41:45;1.00;99.90
11666;DHT22;5889;51.350;6.708;2024-01-16T01:44:12;1.00;99.90
11666;DHT22;5889;51.350;6.708;2024-01-16T01:46:42;1.10;99.90
11666;DHT22;5889;51.350;6.708;2024-01-16T01:49:12;1.10;99.90
11666;DHT22;5889;51.350;6.708;2024-01-16T01:51:42;1.10;99.90
11666;DHT22;5889;51.350;6.708;2024-01-16T01:54:10;1.10;99.90
11666;DHT22;5889;51.350;6.708;2024-01-16T01:56:38;1.10;99.90
11666;DHT22;5889;51.350;6.708;2024-01-16T01:59:06;1.10;99.90
11666;DHT22;5889;51.350;6.708;2024-01-16T02:01:34;1.10;99.90
11666;DHT22;5889;51.350;6.708;2024-01-16T02:04:02;1.10;99.90
11666;DHT22;5889;51.350;6.708;2024-01-16T02:06:29;1.10;99.90
11666;DHT22;5889;51.350;6.708;2024-01-16T02:08:58;1.10;99.90
11666;DHT22;5889;51.350;6.708;2024-01-16T02:11:25;1.10;99.90
11666;DHT22;5889;51.350;6.708;2024-01-16T02:13:52;1.10;99.90
11666;DHT22;5889;51.350;6.708;2024-01-16T02:16:20;1.10;99.90
11666;DHT22;5889;51.350;6.708;2024-01-16T02:18:47;1.10;99.90
11666;DHT22;5889;51.350;6.708;2024-01-16T02:21:17;1.10;99.90
11666;DHT22;5889;51.350;6.708;2024-01-16T02:23:46;1.10;99.90
11666;DHT22;5889;51.350;6.708;2024-01-16T02:26:14;1.20;99.90
11666;DHT22;5889;51.350;6.708;2024-01-16T02:28:41;1.20;99.90
11666;DHT22;5889;51.350;6.708;2024-01-16T02:31:08;1.20;99.90
11666;DHT22;5889;51.350;6.708;2024-01-16T02:33:35;1.20;99.90
11666;DHT22;5889;51.350;6.708;2024-01-16T02:36:03;1.20;99.90
11666;DHT22;5889;51.350;6.708;2024-01-16T02:38:29;1.20;99.90
11666;DHT22;5889;51.350;6.708;2024-01-16T02:40:58;1.20;99.90
11666;DHT22;5889;51.350;6.708;2024-01-16T02:43:25;1.20;99.90
11666;DHT22;5889;51.350;6.708;2024-01-16T02:45:52;1.20;99.90
11666;DHT22;5889;51.350;6.708;2024-01-16T02:48:19;1.30;99.90
11666;DHT22;5889;51.350;6.708;2024-01-16T02:50:47;1.30;99.90
11666;DHT22;5889;51.350;6.708;2024-01-16T02:53:14;1.30;99.90
11666;DHT22;5889;51.350;6.708;2024-01-16T02:55:41;1.30;99.90
11666;DHT22;5889;51.350;6.708;2024-01-16T02:58:10;1.30;99.90
11666;DHT22;5889;51.350;6.708;2024-01-16T03:00:36;1.30;99.90
11666;DHT22;5889;51.350;6.708;2024-01-16T03:03:04;1.30;99.90
11666;DHT22;5889;51.350;6.708;2024-01-16T03:05:31;1.30;99.90
11666;DHT22;5889;51.350;6.708;2024-01-16T03:07:58;1.30;99.90
11666;DHT22;5889;51.350;6.708;2024-01-16T03:10:25;1.30;99.90
11666;DHT22;5889;51.350;6.708;2024-01-16T03:12:52;1.30;99.90
11666;DHT22;5889;51.350;6.708;2024-01-16T03:15:20;1.30;99.90
11666;DHT22;5889;51.350;6.708;2024-01-16T03:17:47;1.30;99.90
11666;DHT22;5889;51.350;6.708;2024-01-16T03:20:15;1.30;99.90
11666;DHT22;5889;51.350;6.708;2024-01-16T03:22:42;1.30;99.90
11666;DHT22;5889;51.350;6.708;2024-01-16T03:25:10;1.30;99.90
11666;DHT22;5889;51.350;6.708;2024-01-16T03:27:37;1.30;99.90
11666;DHT22;5889;51.350;6.708;2024-01-16T03:30:06;1.30;99.90
11666;DHT22;5889;51.350;6.708;2024-01-16T03:32:36;1.30;99.90
11666;DHT22;5889;51.350;6.708;2024-01-16T03:35:03;1.30;99.90
11666;DHT22;5889;51.350;6.708;2024-01-16T03:37:30;1.30;99.90
11666;DHT22;5889;51.350;6.708;2024-01-16T03:39:57;1.30;99.90
11666;DHT22;5889;51.350;6.708;2024-01-16T03:42:24;1.30;99.90
11666;DHT22;5889;51.350;6.708;2024-01-16T03:44:51;1.30;99.90
11666;DHT22;5889;51.350;6.708;2024-01-16T03:47:18;1.30;99.90
11666;DHT22;5889;51.350;6.708;2024-01-16T03:49:46;1.30;99.90
11666;DHT22;5889;51.350;6.708;2024-01-16T03:52:13;1.30;99.90
11666;DHT22;5889;51.350;6.708;2024-01-16T03:54:40;1.20;99.90
11666;DHT22;5889;51.350;6.708;2024-01-16T03:57:07;1.20;99.90
11666;DHT22;5889;51.350;6.708;2024-01-16T03:59:36;1.20;99.90
11666;DHT22;5889;51.350;6.708;2024-01-16T04:02:04;1.10;99.90
11666;DHT22;5889;51.350;6.708;2024-01-16T04:04:31;1.10;99.90
11666;DHT22;5889;51.350;6.708;2024-01-16T04:06:59;1.10;99.90
11666;DHT22;5889;51.350;6.708;2024-01-16T04:09:26;1.10;99.90
11666;DHT22;5889;51.350;6.708;2024-01-16T04:11:53;1.20;99.90
11666;DHT22;5889;51.350;6.708;2024-01-16T04:14:20;1.20;99.90
11666;DHT22;5889;51.350;6.708;2024-01-16T04:16:47;1.10;99.90
11666;DHT22;5889;51.350;6.708;2024-01-16T04:19:14;1.20;99.90
11666;DHT22;5889;51.350;6.708;2024-01-16T04:21:41;1.10;99.90
11666;DHT22;5889;51.350;6.708;2024-01-16T04:24:09;1.20;99.90
11666;DHT22;5889;51.350;6.708;2024-01-16T04:26:36;1.20;99.90
11666;DHT22;5889;51.350;6.708;2024-01-16T04:29:04;1.20;99.90
11666;DHT22;5889;51.350;6.708;2024-01-16T04:31:30;1.20;99.90
11666;DHT22;5889;51.350;6.708;2024-01-16T04:33:58;1.20;99.90
11666;DHT22;5889;51.350;6.708;2024-01-16T04:36:25;1.10;99.90
11666;DHT22;5889;51.350;6.708;2024-01-16T04:38:52;1.10;99.90
11666;DHT22;5889;51.350;6.708;2024-01-16T04:41:20;1.10;99.90
11666;DHT22;5889;51.350;6.708;2024-01-16T04:43:47;1.10;99.90
11666;DHT22;5889;51.350;6.708;2024-01-16T04:46:15;1.10;99.90
11666;DHT22;5889;51.350;6.708;2024-01-16T04:48:42;1.20;99.90
11666;DHT22;5889;51.350;6.708;2024-01-16T04:51:09;1.10;99.90
11666;DHT22;5889;51.350;6.708;2024-01-16T04:53:36;1.20;99.90
11666;DHT22;5889;51.350;6.708;2024-01-16T04:56:03;1.20;99.90
11666;DHT22;5889;51.350;6.708;2024-01-16T04:58:32;1.10;99.90
11666;DHT22;5889;51.350;6.708;2024-01-16T05:00:59;1.10;99.90
11666;DHT22;5889;51.350;6.708;2024-01-16T05:03:26;1.10;99.90
11666;DHT22;5889;51.350;6.708;2024-01-16T05:05:53;1.10;99.90
11666;DHT22;5889;51.350;6.708;2024-01-16T05:08:21;1.10;99.90
11666;DHT22;5889;51.350;6.708;2024-01-16T05:10:48;1.10;99.90
11666;DHT22;5889;51.350;6.708;2024-01-16T05:13:15;1.10;99.90
11666;DHT22;5889;51.350;6.708;2024-01-16T05:15:44;1.10;99.90
11666;DHT22;5889;51.350;6.708;2024-01-16T05:18:11;1.10;99.90
11666;DHT22;5889;51.350;6.708;2024-01-16T05:20:37;1.10;99.90
11666;DHT22;5889;51.350;6.708;2024-01-16T05:23:05;1.10;99.90
11666;DHT22;5889;51.350;6.708;2024-01-16T05:25:32;1.10;99.90
11666;DHT22;5889;51.350;6.708;2024-01-16T05:27:59;1.10;99.90
11666;DHT22;5889;51.350;6.708;2024-01-16T05:30:26;1.10;99.90
11666;DHT22;5889;51.350;6.708;2024-01-16T05:32:54;1.10;99.90
11666;DHT22;5889;51.350;6.708;2024-01-16T05:35:21;1.10;99.90
11666;DHT22;5889;51.350;6.708;2024-01-16T05:37:48;1.10;99.90
11666;DHT22;5889;51.350;6.708;2024-01-16T05:40:15;1.00;99.90
11666;DHT22;5889;51.350;6.708;2024-01-16T05:42:42;1.00;99.90
11666;DHT22;5889;51.350;6.708;2024-01-16T05:45:09;1.00;99.90
11666;DHT22;5889;51.350;6.708;2024-01-16T05:47:36;1.00;99.90
11666;DHT22;5889;51.350;6.708;2024-01-16T05:50:06;1.00;99.90
11666;DHT22;5889;51.350;6.708;2024-01-16T05:52:33;1.00;99.90
11666;DHT22;5889;51.350;6.708;2024-01-16T05:55:00;1.00;99.90
11666;DHT22;5889;51.350;6.708;2024-01-16T05:57:29;0.90;99.90
11666;DHT22;5889;51.350;6.708;2024-01-16T05:59:57;0.90;99.90
11666;DHT22;5889;51.350;6.708;2024-01-16T06:02:25;0.90;99.90
11666;DHT22;5889;51.350;6.708;2024-01-16T06:04:52;0.90;99.90
11666;DHT22;5889;51.350;6.708;2024-01-16T06:07:20;0.80;99.90
11666;DHT22;5889;51.350;6.708;2024-01-16T06:09:47;0.80;99.90
11666;DHT22;5889;51.350;6.708;2024-01-16T06:12:14;0.80;99.90
11666;DHT22;5889;51.350;6.708;2024-01-16T06:14:41;0.80;99.90
11666;DHT22;5889;51.350;6.708;2024-01-16T06:17:08;0.80;99.90
11666;DHT22;5889;51.350;6.708;2024-01-16T06:19:34;0.70;99.90
11666;DHT22;5889;51.350;6.708;2024-01-16T06:22:02;0.70;99.90
11666;DHT22;5889;51.350;6.708;2024-01-16T06:24:31;0.70;99.90
11666;DHT22;5889;51.350;6.708;2024-01-16T06:27:03;0.70;99.90
11666;DHT22;5889;51.350;6.708;2024-01-16T06:29:33;0.60;99.90
11666;DHT22;5889;51.350;6.708;2024-01-16T06:32:00;0.60;99.90
11666;DHT22;5889;51.350;6.708;2024-01-16T06:34:27;0.60;99.90
11666;DHT22;5889;51.350;6.708;2024-01-16T06:36:54;0.60;99.90
11666;DHT22;5889;51.350;6.708;2024-01-16T06:39:21;0.60;99.90
11666;DHT22;5889;51.350;6.708;2024-01-16T06:41:49;0.50;99.90
11666;DHT22;5889;51.350;6.708;2024-01-16T06:44:16;0.50;99.90
11666;DHT22;5889;51.350;6.708;2024-01-16T06:46:43;0.50;99.90
11666;DHT22;5889;51.350;6.708;2024-01-16T06:49:10;0.50;99.90
11666;DHT22;5889;51.350;6.708;2024-01-16T06:51:37;0.50;99.90
11666;DHT22;5889;51.350;6.708;2024-01-16T06:54:04;0.40;99.90
11666;DHT22;5889;51.350;6.708;2024-01-16T06:56:31;0.40;99.90
11666;DHT22;5889;51.350;6.708;2024-01-16T06:59:00;0.40;99.90
11666;DHT22;5889;51.350;6.708;2024-01-16T07:01:27;0.40;99.90
11666;DHT22;5889;51.350;6.708;2024-01-16T07:03:54;0.30;99.90
11666;DHT22;5889;51.350;6.708;2024-01-16T07:06:21;0.30;99.90
11666;DHT22;5889;51.350;6.708;2024-01-16T07:08:47;0.30;99.90
11666;DHT22;5889;51.350;6.708;2024-01-16T07:11:14;0.30;99.90
11666;DHT22;5889;51.350;6.708;2024-01-16T07:13:41;0.30;99.90
11666;DHT22;5889;51.350;6.708;2024-01-16T07:16:11;0.30;99.90
11666;DHT22;5889;51.350;6.708;2024-01-16T07:18:38;0.30;99.90
11666;DHT22;5889;51.350;6.708;2024-01-16T07:21:16;0.30;99.90
11666;DHT22;5889;51.350;6.708;2024-01-16T07:23:43;0.30;99.90
11666;DHT22;5889;51.350;6.708;2024-01-16T07:26:10;0.30;99.90
11666;DHT22;5889;51.350;6.708;2024-01-16T07:28:37;0.30;99.90
11666;DHT22;5889;51.350;6.708;2024-01-16T07:31:04;0.30;99.90
11666;DHT22;5889;51.350;6.708;2024-01-16T07:33:32;0.30;99.90
11666;DHT22;5889;51.350;6.708;2024-01-16T07:35:59;0.30;99.90
11666;DHT22;5889;51.350;6.708;2024-01-16T07:38:26;0.30;99.90
11666;DHT22;5889;51.350;6.708;2024-01-16T07:40:53;0.30;99.90
11666;DHT22;5889;51.350;6.708;2024-01-16T07:43:21;0.30;99.90
11666;DHT22;5889;51.350;6.708;2024-01-16T07:45:48;0.30;99.90
11666;DHT22;5889;51.350;6.708;2024-01-16T07:48:15;0.30;99.90
11666;DHT22;5889;51.350;6.708;2024-01-16T07:50:43;0.30;99.90
11666;DHT22;5889;51.350;6.708;2024-01-16T07:53:11;0.30;99.90
11666;DHT22;5889;51.350;6.708;2024-01-16T07:55:38;0.30;99.90
11666;DHT22;5889;51.350;6.708;2024-01-16T07:58:05;0.30;99.90
11666;DHT22;5889;51.350;6.708;2024-01-16T08:00:32;0.30;99.90
11666;DHT22;5889;51.350;6.708;2024-01-16T08:02:59;0.30;99.90
11666;DHT22;5889;51.350;6.708;2024-01-16T08:05:26;0.30;99.90
11666;DHT22;5889;51.350;6.708;2024-01-16T08:07:54;0.30;99.90
11666;DHT22;5889;51.350;6.708;2024-01-16T08:10:21;0.40;99.90
11666;DHT22;5889;51.350;6.708;2024-01-16T08:12:48;0.30;99.90
11666;DHT22;5889;51.350;6.708;2024-01-16T08:15:15;0.40;99.90
11666;DHT22;5889;51.350;6.708;2024-01-16T08:17:42;0.40;99.90
11666;DHT22;5889;51.350;6.708;2024-01-16T08:20:10;0.40;99.90
11666;DHT22;5889;51.350;6.708;2024-01-16T08:22:37;0.40;99.90
11666;DHT22;5889;51.350;6.708;2024-01-16T08:25:06;0.40;99.90
11666;DHT22;5889;51.350;6.708;2024-01-16T08:27:33;0.40;99.90
11666;DHT22;5889;51.350;6.708;2024-01-16T08:30:03;0.40;99.90
11666;DHT22;5889;51.350;6.708;2024-01-16T08:32:31;0.40;99.90
11666;DHT22;5889;51.350;6.708;2024-01-16T08:34:58;0.40;99.90
11666;DHT22;5889;51.350;6.708;2024-01-16T08:37:24;0.40;99.90
11666;DHT22;5889;51.350;6.708;2024-01-16T08:39:52;0.40;99.90
11666;DHT22;5889;51.350;6.708;2024-01-16T08:42:20;0.40;99.90
11666;DHT22;5889;51.350;6.708;2024-01-16T08:44:47;0.40;99.90
11666;DHT22;5889;51.350;6.708;2024-01-16T08:47:17;0.50;99.90
11666;DHT22;5889;51.350;6.708;2024-01-16T08:49:44;0.50;99.90
11666;DHT22;5889;51.350;6.708;2024-01-16T08:52:11;0.50;99.90
11666;DHT22;5889;51.350;6.708;2024-01-16T08:54:38;0.50;99.90
11666;DHT22;5889;51.350;6.708;2024-01-16T08:57:05;0.50;99.90
11666;DHT22;5889;51.350;6.708;2024-01-16T08:59:33;0.50;99.90
11666;DHT22;5889;51.350;6.708;2024-01-16T09:02:00;0.60;99.90
11666;DHT22;5889;51.350;6.708;2024-01-16T09:04:27;0.60;99.90
11666;DHT22;5889;51.350;6.708;2024-01-16T09:06:54;0.60;99.90
11666;DHT22;5889;51.350;6.708;2024-01-16T09:09:21;0.60;99.90
11666;DHT22;5889;51.350;6.708;2024-01-16T09:11:48;0.70;99.90
11666;DHT22;5889;51.350;6.708;2024-01-16T09:14:15;0.70;99.90
11666;DHT22;5889;51.350;6.708;2024-01-16T09:16:43;0.70;99.90
11666;DHT22;5889;51.350;6.708;2024-01-16T09:19:11;0.80;99.90
11666;DHT22;5889;51.350;6.708;2024-01-16T09:21:37;0.80;99.90
11666;DHT22;5889;51.350;6.708;2024-01-16T09:24:05;0.90;99.90
11666;DHT22;5889;51.350;6.708;2024-01-16T09:26:31;0.90;99.90
11666;DHT22;5889;51.350;6.708;2024-01-16T09:28:58;0.90;99.90
11666;DHT22;5889;51.350;6.708;2024-01-16T09:31:25;1.00;99.90
11666;DHT22;5889;51.350;6.708;2024-01-16T09:33:54;1.00;99.90
11666;DHT22;5889;51.350;6.708;2024-01-16T09:36:20;1.00;99.90
11666;DHT22;5889;51.350;6.708;2024-01-16T09:38:47;1.00;99.90
11666;DHT22;5889;51.350;6.708;2024-01-16T09:41:14;1.00;99.90
11666;DHT22;5889;51.350;6.708;2024-01-16T09:43:43;1.00;99.90
11666;DHT22;5889;51.350;6.708;2024-01-16T09:46:11;1.10;99.90
11666;DHT22;5889;51.350;6.708;2024-01-16T09:48:38;1.10;99.90
11666;DHT22;5889;51.350;6.708;2024-01-16T09:51:08;1.10;99.90
11666;DHT22;5889;51.350;6.708;2024-01-16T09:53:35;1.20;99.90
11666;DHT22;5889;51.350;6.708;2024-01-16T09:56:02;1.20;99.90
11666;DHT22;5889;51.350;6.708;2024-01-16T09:58:34;1.30;99.90
11666;DHT22;5889;51.350;6.708;2024-01-16T10:01:01;1.30;99.90
11666;DHT22;5889;51.350;6.708;2024-01-16T10:03:31;1.30;99.90
11666;DHT22;5889;51.350;6.708;2024-01-16T10:05:58;1.30;99.90
11666;DHT22;5889;51.350;6.708;2024-01-16T10:08:29;1.40;99.90
11666;DHT22;5889;51.350;6.708;2024-01-16T10:10:57;1.40;99.90
11666;DHT22;5889;51.350;6.708;2024-01-16T10:13:25;1.40;99.90
11666;DHT22;5889;51.350;6.708;2024-01-16T10:15:53;1.50;99.90
11666;DHT22;5889;51.350;6.708;2024-01-16T10:18:25;1.50;99.90
11666;DHT22;5889;51.350;6.708;2024-01-16T10:20:53;1.50;99.90
11666;DHT22;5889;51.350;6.708;2024-01-16T10:23:23;1.60;99.90
11666;DHT22;5889;51.350;6.708;2024-01-16T10:26:07;1.60;99.90
11666;DHT22;5889;51.350;6.708;2024-01-16T10:28:34;1.60;99.90
11666;DHT22;5889;51.350;6.708;2024-01-16T10:31:02;1.60;99.90
11666;DHT22;5889;51.350;6.708;2024-01-16T10:33:29;1.70;99.90
11666;DHT22;5889;51.350;6.708;2024-01-16T10:36:08;1.70;99.90
11666;DHT22;5889;51.350;6.708;2024-01-16T10:38:36;1.80;99.90
11666;DHT22;5889;51.350;6.708;2024-01-16T10:41:13;1.90;99.90
11666;DHT22;5889;51.350;6.708;2024-01-16T10:43:44;1.80;99.90
11666;DHT22;5889;51.350;6.708;2024-01-16T10:46:12;1.90;99.90
11666;DHT22;5889;51.350;6.708;2024-01-16T10:48:40;1.90;99.90
11666;DHT22;5889;51.350;6.708;2024-01-16T10:51:10;1.90;99.90
11666;DHT22;5889;51.350;6.708;2024-01-16T10:53:42;1.90;99.90
11666;DHT22;5889;51.350;6.708;2024-01-16T10:56:12;1.90;99.90
11666;DHT22;5889;51.350;6.708;2024-01-16T10:58:41;1.80;99.90
11666;DHT22;5889;51.350;6.708;2024-01-16T11:01:11;1.80;99.90
11666;DHT22;5889;51.350;6.708;2024-01-16T11:03:43;1.80;99.90
11666;DHT22;5889;51.350;6.708;2024-01-16T11:06:12;1.80;99.90
11666;DHT22;5889;51.350;6.708;2024-01-16T11:08:41;1.80;99.90
11666;DHT22;5889;51.350;6.708;2024-01-16T11:11:08;1.80;99.90
11666;DHT22;5889;51.350;6.708;2024-01-16T11:13:38;1.70;99.90
11666;DHT22;5889;51.350;6.708;2024-01-16T11:16:05;1.70;99.90
11666;DHT22;5889;51.350;6.708;2024-01-16T11:18:34;1.70;99.90
11666;DHT22;5889;51.350;6.708;2024-01-16T11:21:04;1.70;99.90
11666;DHT22;5889;51.350;6.708;2024-01-16T11:23:31;1.70;99.90
11666;DHT22;5889;51.350;6.708;2024-01-16T11:26:00;1.80;99.90
11666;DHT22;5889;51.350;6.708;2024-01-16T11:28:48;1.80;99.90
11666;DHT22;5889;51.350;6.708;2024-01-16T11:31:28;1.80;99.90
11666;DHT22;5889;51.350;6.708;2024-01-16T11:33:55;1.90;99.90
11666;DHT22;5889;51.350;6.708;2024-01-16T11:36:49;1.90;99.90
11666;DHT22;5889;51.350;6.708;2024-01-16T11:39:20;1.90;99.90
11666;DHT22;5889;51.350;6.708;2024-01-16T11:41:48;1.90;99.90
11666;DHT22;5889;51.350;6.708;2024-01-16T11:44:42;1.90;99.90
11666;DHT22;5889;51.350;6.708;2024-01-16T11:47:15;2.00;99.90
11666;DHT22;5889;51.350;6.708;2024-01-16T11:49:42;2.00;99.90
11666;DHT22;5889;51.350;6.708;2024-01-16T11:52:09;2.00;99.90
11666;DHT22;5889;51.350;6.708;2024-01-16T11:54:37;2.00;99.90
11666;DHT22;5889;51.350;6.708;2024-01-16T11:57:36;2.00;99.90
11666;DHT22;5889;51.350;6.708;2024-01-16T12:00:19;2.00;99.90
11666;DHT22;5889;51.350;6.708;2024-01-16T12:02:52;2.00;99.90
11666;DHT22;5889;51.350;6.708;2024-01-16T12:05:20;2.10;99.90
11666;DHT22;5889;51.350;6.708;2024-01-16T12:07:48;2.10;99.90
11666;DHT22;5889;51.350;6.708;2024-01-16T12:10:16;2.10;99.90
11666;DHT22;5889;51.350;6.708;2024-01-16T12:12:43;2.00;99.90
11666;DHT22;5889;51.350;6.708;2024-01-16T12:15:15;2.00;99.90
11666;DHT22;5889;51.350;6.708;2024-01-16T12:17:57;2.00;99.90
11666;DHT22;5889;51.350;6.708;2024-01-16T12:20:26;2.00;99.90
11666;DHT22;5889;51.350;6.708;2024-01-16T12:23:03;2.00;99.90
11666;DHT22;5889;51.350;6.708;2024-01-16T12:25:32;2.00;99.90
11666;DHT22;5889;51.350;6.708;2024-01-16T12:28:00;2.00;99.90
11666;DHT22;5889;51.350;6.708;2024-01-16T12:30:29;2.00;99.90
11666;DHT22;5889;51.350;6.708;2024-01-16T12:33:08;2.10;99.90
11666;DHT22;5889;51.350;6.708;2024-01-16T12:35:35;2.10;99.90
11666;DHT22;5889;51.350;6.708;2024-01-16T12:38:03;2.20;99.90
11666;DHT22;5889;51.350;6.708;2024-01-16T12:40:32;2.20;99.90
11666;DHT22;5889;51.350;6.708;2024-01-16T12:43:00;2.30;99.90
11666;DHT22;5889;51.350;6.708;2024-01-16T12:45:27;2.30;99.90
11666;DHT22;5889;51.350;6.708;2024-01-16T12:47:55;2.30;99.90
11666;DHT22;5889;51.350;6.708;2024-01-16T12:50:27;2.30;99.90
11666;DHT22;5889;51.350;6.708;2024-01-16T12:53:05;2.30;99.90
11666;DHT22;5889;51.350;6.708;2024-01-16T12:55:33;2.30;99.90
11666;DHT22;5889;51.350;6.708;2024-01-16T12:58:14;2.30;99.90
11666;DHT22;5889;51.350;6.708;2024-01-16T13:00:42;2.40;99.90
11666;DHT22;5889;51.350;6.708;2024-01-16T13:03:15;2.40;99.90
11666;DHT22;5889;51.350;6.708;2024-01-16T13:05:45;2.40;99.90
11666;DHT22;5889;51.350;6.708;2024-01-16T13:08:17;2.40;99.90
11666;DHT22;5889;51.350;6.708;2024-01-16T13:10:44;2.40;99.90
11666;DHT22;5889;51.350;6.708;2024-01-16T13:13:13;2.40;99.90
11666;DHT22;5889;51.350;6.708;2024-01-16T13:15:41;2.40;99.90
11666;DHT22;5889;51.350;6.708;2024-01-16T13:18:17;2.50;99.90
11666;DHT22;5889;51.350;6.708;2024-01-16T13:20:47;2.50;99.90
11666;DHT22;5889;51.350;6.708;2024-01-16T13:23:14;2.50;99.90
11666;DHT22;5889;51.350;6.708;2024-01-16T13:25:43;2.50;99.90
11666;DHT22;5889;51.350;6.708;2024-01-16T13:28:11;2.60;99.90
11666;DHT22;5889;51.350;6.708;2024-01-16T13:30:39;2.50;99.90
11666;DHT22;5889;51.350;6.708;2024-01-16T13:33:06;2.50;99.90
11666;DHT22;5889;51.350;6.708;2024-01-16T13:35:34;2.50;99.90
11666;DHT22;5889;51.350;6.708;2024-01-16T13:38:04;2.50;99.90
11666;DHT22;5889;51.350;6.708;2024-01-16T13:40:31;2.50;99.90
11666;DHT22;5889;51.350;6.708;2024-01-16T13:42:59;2.40;99.90
11666;DHT22;5889;51.350;6.708;2024-01-16T13:45:26;2.50;99.90
11666;DHT22;5889;51.350;6.708;2024-01-16T13:47:53;2.50;99.90
11666;DHT22;5889;51.350;6.708;2024-01-16T13:50:20;2.40;99.90
11666;DHT22;5889;51.350;6.708;2024-01-16T13:52:48;2.40;99.90
11666;DHT22;5889;51.350;6.708;2024-01-16T13:55:17;2.40;99.90
11666;DHT22;5889;51.350;6.708;2024-01-16T13:57:44;2.40;99.90
11666;DHT22;5889;51.350;6.708;2024-01-16T14:00:13;2.30;99.90
11666;DHT22;5889;51.350;6.708;2024-01-16T14:02:41;2.30;99.90
11666;DHT22;5889;51.350;6.708;2024-01-16T14:05:08;2.30;99.90
11666;DHT22;5889;51.350;6.708;2024-01-16T14:07:36;2.30;99.90
11666;DHT22;5889;51.350;6.708;2024-01-16T14:10:05;2.20;99.90
11666;DHT22;5889;51.350;6.708;2024-01-16T14:12:34;2.20;99.90
11666;DHT22;5889;51.350;6.708;2024-01-16T14:15:02;2.10;99.90
11666;DHT22;5889;51.350;6.708;2024-01-16T14:17:34;2.10;99.90
11666;DHT22;5889;51.350;6.708;2024-01-16T14:20:02;2.10;99.90
11666;DHT22;5889;51.350;6.708;2024-01-16T14:22:30;2.00;99.90
11666;DHT22;5889;51.350;6.708;2024-01-16T14:24:57;2.00;99.90
11666;DHT22;5889;51.350;6.708;2024-01-16T14:27:24;2.00;99.90
11666;DHT22;5889;51.350;6.708;2024-01-16T14:29:53;2.00;99.90
11666;DHT22;5889;51.350;6.708;2024-01-16T14:32:19;1.90;99.90
11666;DHT22;5889;51.350;6.708;2024-01-16T14:34:46;1.90;99.90
11666;DHT22;5889;51.350;6.708;2024-01-16T14:37:13;1.90;99.90
11666;DHT22;5889;51.350;6.708;2024-01-16T14:39:42;1.90;99.90
11666;DHT22;5889;51.350;6.708;2024-01-16T14:42:09;1.90;99.90
11666;DHT22;5889;51.350;6.708;2024-01-16T14:44:36;1.90;99.90
11666;DHT22;5889;51.350;6.708;2024-01-16T14:47:05;1.90;99.90
11666;DHT22;5889;51.350;6.708;2024-01-16T14:49:33;1.90;99.90
11666;DHT22;5889;51.350;6.708;2024-01-16T14:52:00;1.80;99.90
11666;DHT22;5889;51.350;6.708;2024-01-16T14:54:27;1.80;99.90
11666;DHT22;5889;51.350;6.708;2024-01-16T14:56:54;1.80;99.90
11666;DHT22;5889;51.350;6.708;2024-01-16T14:59:21;1.70;99.90
11666;DHT22;5889;51.350;6.708;2024-01-16T15:01:48;1.70;99.90
11666;DHT22;5889;51.350;6.708;2024-01-16T15:04:18;1.70;99.90
11666;DHT22;5889;51.350;6.708;2024-01-16T15:06:45;1.70;99.90
11666;DHT22;5889;51.350;6.708;2024-01-16T15:09:12;1.60;99.90
11666;DHT22;5889;51.350;6.708;2024-01-16T15:11:39;1.60;99.90
11666;DHT22;5889;51.350;6.708;2024-01-16T15:14:06;1.60;99.90
11666;DHT22;5889;51.350;6.708;2024-01-16T15:16:36;1.60;99.90
11666;DHT22;5889;51.350;6.708;2024-01-16T15:19:03;1.50;99.90
11666;DHT22;5889;51.350;6.708;2024-01-16T15:21:30;1.50;99.90
11666;DHT22;5889;51.350;6.708;2024-01-16T15:23:57;1.40;99.90
11666;DHT22;5889;51.350;6.708;2024-01-16T15:26:24;1.40;99.90
11666;DHT22;5889;51.350;6.708;2024-01-16T15:28:51;1.40;99.90
11666;DHT22;5889;51.350;6.708;2024-01-16T15:31:20;1.30;99.90
11666;DHT22;5889;51.350;6.708;2024-01-16T15:33:47;1.20;99.90
11666;DHT22;5889;51.350;6.708;2024-01-16T15:36:15;1.20;99.90
11666;DHT22;5889;51.350;6.708;2024-01-16T15:38:44;1.20;99.90
11666;DHT22;5889;51.350;6.708;2024-01-16T15:41:11;1.10;99.90
11666;DHT22;5889;51.350;6.708;2024-01-16T15:43:38;1.10;99.90
11666;DHT22;5889;51.350;6.708;2024-01-16T15:46:05;1.10;99.90
11666;DHT22;5889;51.350;6.708;2024-01-16T15:48:32;1.00;99.90
11666;DHT22;5889;51.350;6.708;2024-01-16T15:50:59;1.00;99.90
11666;DHT22;5889;51.350;6.708;2024-01-16T15:53:26;0.90;99.90
11666;DHT22;5889;51.350;6.708;2024-01-16T15:55:54;0.90;99.90
11666;DHT22;5889;51.350;6.708;2024-01-16T15:58:21;0.90;99.90
11666;DHT22;5889;51.350;6.708;2024-01-16T16:00:50;0.80;99.90
11666;DHT22;5889;51.350;6.708;2024-01-16T16:03:17;0.80;99.90
11666;DHT22;5889;51.350;6.708;2024-01-16T16:05:51;0.80;99.90
11666;DHT22;5889;51.350;6.708;2024-01-16T16:08:20;0.70;99.90